Time;durP1;ratioP1;P1;durP2;ratioP2;P2;SDS_P1;SDS_P2;PMS_P1;PMS_P2;Temp;Humidity;BMP_temperature;BMP_pressure;BME280_temperature;BME280_humidity;BME280_pressure;Samples;Min_cycle;Max_cycle;Signal;HPM_P1;HPM_P2
2022/04/21 00:00:44;;;;;;;;;;;21.60;46.70;;;;;;5094365;28;19928;-50
2022/04/21 00:03:11;;;;;;;;;;;21.60;46.70;;;;;;5094055;28;19928;-50
2022/04/21 00:05:38;;;;;;;;;;;21.60;46.80;;;;;;5094024;28;19928;-47
2022/04/21 00:08:05;;;;;;;;;;;21.60;46.80;;;;;;5093974;28;19930;-53
2022/04/21 00:10:33;;;;;;;;;;;21.60;46.80;;;;;;5093017;28;20295;-50
2022/04/21 00:13:00;;;;;;;;;;;21.60;46.80;;;;;;5093903;28;19924;-48
2022/04/21 00:15:27;;;;;;;;;;;21.60;47.40;;;;;;5094135;28;19928;-51
2022/04/21 00:17:54;;;;;;;;;;;21.60;46.80;;;;;;5094128;28;19934;-48
2022/04/21 00:20:21;;;;;;;;;;;21.60;46.80;;;;;;5093710;28;19924;-48
2022/04/21 00:25:33;;;;;;;;;;;21.60;46.80;;;;;;5093401;28;19977;-46
2022/04/21 00:28:00;;;;;;;;;;;21.60;46.80;;;;;;5094034;28;19924;-47
2022/04/21 00:30:28;;;;;;;;;;;21.60;46.80;;;;;;5093735;28;19924;-50
2022/04/21 00:32:55;;;;;;;;;;;21.60;46.80;;;;;;5076366;28;20291;-49
2022/04/21 00:35:24;;;;;;;;;;;21.60;46.80;;;;;;5076312;28;20021;-47
2022/04/21 00:37:52;;;;;;;;;;;21.60;46.80;;;;;;5093666;28;20403;-46
2022/04/21 00:40:20;;;;;;;;;;;21.60;46.80;;;;;;5093011;28;19928;-49
2022/04/21 00:42:48;;;;;;;;;;;21.60;46.80;;;;;;5093550;28;19932;-47
2022/04/21 00:45:15;;;;;;;;;;;21.60;46.80;;;;;;5093925;28;19933;-52
2022/04/21 00:47:45;;;;;;;;;;;21.60;46.80;;;;;;5094129;28;19989;-47
2022/04/21 00:50:15;;;;;;;;;;;21.60;46.80;;;;;;5093789;28;19928;-51
2022/04/21 00:52:43;;;;;;;;;;;21.60;46.80;;;;;;5093461;28;20015;-51
2022/04/21 00:55:11;;;;;;;;;;;21.60;46.80;;;;;;5092567;28;19924;-43
2022/04/21 00:57:40;;;;;;;;;;;21.60;46.80;;;;;;5093746;28;19963;-48
2022/04/21 01:00:07;;;;;;;;;;;21.60;46.80;;;;;;5093795;28;20014;-52
2022/04/21 01:02:47;;;;;;;;;;;21.60;46.80;;;;;;5094605;28;20271;-52
2022/04/21 01:05:15;;;;;;;;;;;21.60;46.80;;;;;;5093465;28;19928;-51
2022/04/21 01:07:42;;;;;;;;;;;21.60;46.80;;;;;;5093362;28;19924;-53
2022/04/21 01:10:10;;;;;;;;;;;21.60;46.80;;;;;;5093146;28;19928;-53
2022/04/21 01:12:40;;;;;;;;;;;21.60;46.80;;;;;;5094204;28;19924;-52
2022/04/21 01:15:07;;;;;;;;;;;21.60;46.80;;;;;;5093646;28;20022;-48
2022/04/21 01:17:35;;;;;;;;;;;21.60;46.80;;;;;;5093204;28;19924;-53
2022/04/21 01:20:03;;;;;;;;;;;21.60;46.80;;;;;;5093303;28;19931;-53
2022/04/21 01:22:30;;;;;;;;;;;21.60;46.80;;;;;;5092920;28;19924;-50
2022/04/21 01:24:58;;;;;;;;;;;21.60;46.80;;;;;;5093026;28;19931;-50
2022/04/21 01:27:29;;;;;;;;;;;21.60;46.90;;;;;;5075594;28;19924;-52
2022/04/21 01:29:56;;;;;;;;;;;21.60;46.80;;;;;;5093501;28;19924;-45
2022/04/21 01:32:23;;;;;;;;;;;21.60;46.90;;;;;;5093147;28;19928;-51
2022/04/21 01:34:50;;;;;;;;;;;21.60;46.80;;;;;;5096583;28;19924;-52
2022/04/21 01:42:49;;;;;;;;;;;21.60;46.80;;;;;;5077305;28;19931;-48
2022/04/21 01:45:16;;;;;;;;;;;21.60;46.80;;;;;;5076656;28;19925;-48
2022/04/21 01:47:43;;;;;;;;;;;21.60;46.80;;;;;;5076267;28;19929;-47
2022/04/21 01:50:10;;;;;;;;;;;21.60;46.80;;;;;;5076438;28;19925;-46
2022/04/21 01:52:38;;;;;;;;;;;21.50;46.70;;;;;;5076171;28;20379;-44
2022/04/21 01:55:06;;;;;;;;;;;21.60;46.80;;;;;;5058445;28;19925;-52
2022/04/21 01:57:33;;;;;;;;;;;21.50;46.70;;;;;;5094060;28;20334;-48
2022/04/21 02:00:00;;;;;;;;;;;21.50;46.70;;;;;;5096653;28;20333;-48
2022/04/21 02:02:29;;;;;;;;;;;21.60;46.80;;;;;;5096283;28;20376;-47
2022/04/21 02:04:57;;;;;;;;;;;21.60;46.80;;;;;;5096567;28;19924;-44
2022/04/21 02:07:24;;;;;;;;;;;21.50;46.80;;;;;;5096491;28;19924;-53
2022/04/21 02:09:52;;;;;;;;;;;21.50;46.80;;;;;;5096174;28;19930;-52
2022/04/21 02:12:21;;;;;;;;;;;21.50;46.70;;;;;;5095173;28;19930;-53
2022/04/21 02:14:48;;;;;;;;;;;21.50;46.70;;;;;;5097205;28;19928;-46
2022/04/21 02:17:15;;;;;;;;;;;21.50;46.80;;;;;;5095936;28;19953;-45
2022/04/21 02:19:42;;;;;;;;;;;21.50;46.80;;;;;;5096275;28;20007;-44
2022/04/21 02:22:09;;;;;;;;;;;21.50;46.80;;;;;;5095719;28;19924;-44
2022/04/21 02:24:36;;;;;;;;;;;21.50;46.80;;;;;;5095687;28;20390;-51
2022/04/21 02:27:04;;;;;;;;;;;21.50;46.80;;;;;;5076212;28;21311;-48
2022/04/21 02:29:31;;;;;;;;;;;21.50;46.80;;;;;;5095777;28;19931;-44
2022/04/21 02:32:01;;;;;;;;;;;21.50;46.80;;;;;;5078748;28;19924;-48
2022/04/21 02:34:29;;;;;;;;;;;21.50;46.80;;;;;;5095648;28;19924;-44
2022/04/21 02:36:56;;;;;;;;;;;21.50;46.80;;;;;;5096390;28;19995;-50
2022/04/21 02:39:24;;;;;;;;;;;21.50;46.80;;;;;;5095885;28;19928;-50
2022/04/21 02:41:51;;;;;;;;;;;21.50;46.80;;;;;;5094975;28;20261;-44
2022/04/21 02:44:18;;;;;;;;;;;21.50;46.80;;;;;;5095476;28;19931;-45
2022/04/21 02:46:45;;;;;;;;;;;21.50;46.80;;;;;;5095443;28;19924;-47
2022/04/21 02:49:13;;;;;;;;;;;21.50;46.80;;;;;;5095377;28;20429;-45
2022/04/21 02:51:41;;;;;;;;;;;21.50;46.80;;;;;;5077340;28;20014;-46
2022/04/21 02:59:41;;;;;;;;;;;21.50;46.80;;;;;;5095208;28;19924;-45
2022/04/21 03:02:08;;;;;;;;;;;21.50;46.80;;;;;;5095143;28;19924;-46
2022/04/21 03:04:35;;;;;;;;;;;21.50;46.80;;;;;;5095372;28;19924;-45
2022/04/21 03:07:02;;;;;;;;;;;21.50;46.80;;;;;;5095045;28;19924;-47
2022/04/21 03:09:29;;;;;;;;;;;21.50;46.80;;;;;;5095017;28;19978;-46
2022/04/21 03:12:04;;;;;;;;;;;21.50;46.80;;;;;;5094021;28;19927;-47
2022/04/21 03:14:31;;;;;;;;;;;21.50;46.80;;;;;;5075401;28;19924;-47
2022/04/21 03:17:01;;;;;;;;;;;21.50;46.80;;;;;;5074550;28;19924;-52
2022/04/21 03:19:28;;;;;;;;;;;21.50;46.80;;;;;;5074875;28;20276;-52
2022/04/21 03:24:41;;;;;;;;;;;21.50;46.90;;;;;;5075369;28;19925;-49
2022/04/21 03:27:08;;;;;;;;;;;21.50;46.90;;;;;;5080762;28;20306;-51
2022/04/21 03:29:37;;;;;;;;;;;21.50;46.90;;;;;;5094523;28;19931;-49
2022/04/21 03:32:12;;;;;;;;;;;21.50;46.90;;;;;;5094815;28;20299;-51
2022/04/21 03:34:42;;;;;;;;;;;21.50;46.90;;;;;;5094834;28;19947;-50
2022/04/21 03:37:11;;;;;;;;;;;21.40;46.80;;;;;;5095556;28;19924;-50
2022/04/21 03:39:39;;;;;;;;;;;21.50;46.90;;;;;;5094449;28;19924;-49
2022/04/21 03:42:07;;;;;;;;;;;21.50;46.90;;;;;;5093413;28;19931;-49
2022/04/21 03:44:40;;;;;;;;;;;21.50;46.90;;;;;;5094670;28;20287;-48
2022/04/21 03:47:07;;;;;;;;;;;21.50;46.90;;;;;;5094665;28;19930;-52
2022/04/21 03:49:34;;;;;;;;;;;21.50;46.90;;;;;;5094289;28;20379;-47
2022/04/21 03:52:02;;;;;;;;;;;21.50;46.80;;;;;;5093999;28;19925;-47
2022/04/21 03:54:30;;;;;;;;;;;21.50;46.90;;;;;;5094457;28;20352;-50
2022/04/21 03:56:57;;;;;;;;;;;21.50;46.80;;;;;;5092725;28;20376;-45
2022/04/21 03:59:24;;;;;;;;;;;21.50;46.80;;;;;;5094443;28;20100;-44
2022/04/21 04:01:51;;;;;;;;;;;21.50;46.90;;;;;;5094000;28;20002;-50
2022/04/21 04:04:18;;;;;;;;;;;21.50;46.90;;;;;;5094375;28;19967;-45
2022/04/21 04:12:17;;;;;;;;;;;21.50;46.90;;;;;;5093325;28;19924;-52
2022/04/21 04:14:44;;;;;;;;;;;21.50;46.80;;;;;;5093936;28;19924;-48
2022/04/21 04:17:12;;;;;;;;;;;21.50;46.80;;;;;;5094045;28;19932;-49
2022/04/21 04:19:39;;;;;;;;;;;21.50;46.80;;;;;;5076293;28;20382;-46
2022/04/21 04:22:06;;;;;;;;;;;21.50;46.80;;;;;;5093925;28;19924;-50
2022/04/21 04:24:33;;;;;;;;;;;21.50;46.80;;;;;;5093839;28;19924;-53
2022/04/21 04:27:00;;;;;;;;;;;21.50;46.80;;;;;;5092916;28;19924;-51
2022/04/21 04:29:27;;;;;;;;;;;21.50;46.70;;;;;;5073526;28;19925;-52
2022/04/21 04:31:57;;;;;;;;;;;21.50;46.70;;;;;;5073839;28;19936;-50
2022/04/21 04:34:24;;;;;;;;;;;21.50;46.70;;;;;;5073833;28;20354;-51
2022/04/21 04:36:51;;;;;;;;;;;21.50;46.70;;;;;;5073771;28;19929;-53
2022/04/21 04:39:18;;;;;;;;;;;21.50;46.70;;;;;;5073815;28;20304;-52
2022/04/21 04:44:31;;;;;;;;;;;21.50;46.70;;;;;;5093625;28;19924;-50
2022/04/21 04:46:57;;;;;;;;;;;21.50;46.70;;;;;;5093606;28;20379;-51
2022/04/21 04:49:24;;;;;;;;;;;21.60;46.70;;;;;;5093858;28;19928;-52
2022/04/21 04:51:51;;;;;;;;;;;21.50;46.60;;;;;;5093759;28;20330;-49
2022/04/21 04:54:19;;;;;;;;;;;21.60;46.60;;;;;;5093545;28;19928;-47
2022/04/21 04:56:46;;;;;;;;;;;21.60;46.60;;;;;;5093346;28;19924;-52
2022/04/21 04:59:14;;;;;;;;;;;21.60;46.60;;;;;;5092580;28;19931;-48
2022/04/21 05:01:42;;;;;;;;;;;21.60;47.10;;;;;;5093453;28;19974;-49
2022/04/21 05:04:10;;;;;;;;;;;21.60;46.50;;;;;;5094279;28;19982;-52
2022/04/21 05:06:38;;;;;;;;;;;21.60;46.40;;;;;;5093369;28;19924;-50
2022/04/21 05:09:06;;;;;;;;;;;21.60;46.40;;;;;;5095900;28;19930;-51
2022/04/21 05:11:33;;;;;;;;;;;21.70;46.50;;;;;;5097250;28;19924;-52
2022/04/21 05:14:01;;;;;;;;;;;21.60;46.40;;;;;;5096291;28;20406;-47
2022/04/21 05:16:28;;;;;;;;;;;21.70;46.40;;;;;;5097490;28;19924;-47
2022/04/21 05:18:56;;;;;;;;;;;21.70;46.40;;;;;;5091265;28;19928;-46
2022/04/21 05:21:24;;;;;;;;;;;21.70;46.40;;;;;;5083458;28;19931;-47
2022/04/21 05:23:56;;;;;;;;;;;21.70;46.30;;;;;;5095832;28;19924;-45
2022/04/21 05:26:23;;;;;;;;;;;21.70;46.30;;;;;;5096512;28;19928;-45
2022/04/21 05:28:51;;;;;;;;;;;21.70;46.20;;;;;;5095409;28;19931;-46
2022/04/21 05:31:18;;;;;;;;;;;21.80;46.20;;;;;;5096675;28;19931;-46
2022/04/21 05:33:45;;;;;;;;;;;21.80;46.20;;;;;;5096057;28;19973;-44
2022/04/21 05:36:12;;;;;;;;;;;21.80;46.20;;;;;;5093707;28;19924;-49
2022/04/21 05:38:40;;;;;;;;;;;21.80;46.10;;;;;;5096466;28;19924;-50
2022/04/21 05:41:07;;;;;;;;;;;21.80;46.00;;;;;;5096262;28;19924;-49
2022/04/21 05:43:39;;;;;;;;;;;21.90;46.10;;;;;;5094189;28;19962;-46
2022/04/21 05:46:07;;;;;;;;;;;21.90;46.00;;;;;;5096205;28;20420;-47
2022/04/21 05:48:35;;;;;;;;;;;21.90;46.00;;;;;;5095824;28;19928;-47
2022/04/21 05:51:02;;;;;;;;;;;21.90;46.00;;;;;;5095594;28;19924;-46
2022/04/21 05:53:32;;;;;;;;;;;21.90;46.00;;;;;;5095083;28;19924;-46
2022/04/21 05:55:59;;;;;;;;;;;21.90;45.90;;;;;;5096160;28;19931;-48
2022/04/21 05:58:27;;;;;;;;;;;21.90;45.90;;;;;;5094309;28;19924;-49
2022/04/21 06:00:54;;;;;;;;;;;22.00;45.90;;;;;;5095470;28;19932;-49
2022/04/21 06:03:27;;;;;;;;;;;22.00;45.90;;;;;;5094745;28;20386;-49
2022/04/21 06:05:54;;;;;;;;;;;22.00;45.90;;;;;;5095387;28;19928;-49
2022/04/21 06:08:21;;;;;;;;;;;22.00;45.90;;;;;;5095481;28;20322;-50
2022/04/21 06:10:48;;;;;;;;;;;22.00;45.90;;;;;;5095709;28;19924;-50
2022/04/21 06:13:15;;;;;;;;;;;22.00;45.80;;;;;;5093489;28;19953;-47
2022/04/21 06:15:43;;;;;;;;;;;22.00;45.80;;;;;;5094853;28;20018;-48
2022/04/21 06:18:10;;;;;;;;;;;22.00;45.80;;;;;;5077426;28;20443;-51
2022/04/21 06:20:37;;;;;;;;;;;22.00;45.70;;;;;;5094221;28;19931;-52
2022/04/21 06:23:04;;;;;;;;;;;22.10;45.80;;;;;;5094850;28;20284;-51
2022/04/21 06:25:39;;;;;;;;;;;22.10;45.70;;;;;;5094706;28;19931;-47
2022/04/21 06:28:06;;;;;;;;;;;22.10;45.70;;;;;;5094969;28;19924;-50
2022/04/21 06:30:33;;;;;;;;;;;22.10;45.70;;;;;;5094428;28;19924;-52
2022/04/21 06:33:00;;;;;;;;;;;22.10;45.70;;;;;;5094885;28;19924;-50
2022/04/21 06:35:27;;;;;;;;;;;22.10;46.20;;;;;;5094267;28;19958;-52
2022/04/21 06:37:54;;;;;;;;;;;22.10;45.60;;;;;;5094661;28;19928;-51
2022/04/21 06:40:22;;;;;;;;;;;22.10;45.60;;;;;;5094891;28;19931;-51
2022/04/21 06:42:49;;;;;;;;;;;22.10;45.60;;;;;;5094429;28;19925;-51
2022/04/21 06:48:02;;;;;;;;;;;22.20;45.60;;;;;;5094754;28;19931;-49
2022/04/21 06:50:29;;;;;;;;;;;22.20;45.60;;;;;;5094346;28;20295;-50
2022/04/21 06:52:57;;;;;;;;;;;22.20;45.50;;;;;;5094281;28;20295;-45
2022/04/21 06:55:24;;;;;;;;;;;22.20;45.50;;;;;;5094104;28;19924;-48
2022/04/21 06:57:51;;;;;;;;;;;22.20;45.50;;;;;;5094052;28;19924;-46
2022/04/21 07:00:18;;;;;;;;;;;22.20;45.50;;;;;;5093506;28;19970;-45
2022/04/21 07:02:45;;;;;;;;;;;22.20;45.50;;;;;;5094531;28;20090;-49
2022/04/21 07:05:13;;;;;;;;;;;22.20;45.50;;;;;;5093217;28;19936;-47
2022/04/21 07:07:41;;;;;;;;;;;22.20;45.50;;;;;;5094012;28;20027;-48
2022/04/21 07:10:14;;;;;;;;;;;22.20;45.50;;;;;;5093940;28;19932;-46
2022/04/21 07:12:41;;;;;;;;;;;22.20;45.50;;;;;;5093514;28;19930;-49
2022/04/21 07:15:10;;;;;;;;;;;22.20;45.50;;;;;;5092018;28;19986;-44
2022/04/21 07:17:37;;;;;;;;;;;22.20;45.50;;;;;;5093415;28;19963;-47
2022/04/21 07:20:05;;;;;;;;;;;22.20;45.40;;;;;;5093544;28;20073;-46
2022/04/21 07:22:32;;;;;;;;;;;22.20;45.40;;;;;;5093351;28;19924;-46
2022/04/21 07:25:01;;;;;;;;;;;22.20;45.50;;;;;;5092920;28;19924;-50
2022/04/21 07:27:28;;;;;;;;;;;22.20;45.50;;;;;;5093597;28;20276;-48
2022/04/21 07:29:56;;;;;;;;;;;22.20;45.50;;;;;;5083714;28;19934;-46
2022/04/21 07:32:23;;;;;;;;;;;22.20;45.50;;;;;;5072919;28;19930;-44
2022/04/21 07:34:51;;;;;;;;;;;22.30;45.50;;;;;;5072907;28;20296;-44
2022/04/21 07:37:18;;;;;;;;;;;22.20;45.40;;;;;;5072922;28;19975;-46
2022/04/21 07:39:45;;;;;;;;;;;22.30;45.50;;;;;;5073300;28;19935;-49
2022/04/21 07:42:13;;;;;;;;;;;22.30;45.50;;;;;;5072656;28;19925;-45
2022/04/21 07:44:40;;;;;;;;;;;22.20;45.40;;;;;;5078121;28;19924;-50
2022/04/21 07:47:08;;;;;;;;;;;22.30;45.50;;;;;;5093632;28;19931;-48
2022/04/21 07:49:48;;;;;;;;;;;22.30;45.50;;;;;;5093173;28;19928;-51
2022/04/21 07:55:07;;;;;;;;;;;22.20;45.50;;;;;;5093018;28;19938;-48
2022/04/21 07:57:35;;;;;;;;;;;22.30;45.50;;;;;;5092341;28;19924;-52
2022/04/21 08:00:05;;;;;;;;;;;22.20;45.50;;;;;;5092558;28;19924;-52
2022/04/21 08:02:32;;;;;;;;;;;22.30;45.50;;;;;;5075676;28;19924;-51
2022/04/21 08:05:00;;;;;;;;;;;22.30;45.50;;;;;;5074354;28;19963;-51
2022/04/21 08:07:27;;;;;;;;;;;22.30;45.60;;;;;;5092945;28;19924;-47
2022/04/21 08:09:54;;;;;;;;;;;22.30;45.50;;;;;;5093517;28;19932;-48
2022/04/21 08:12:21;;;;;;;;;;;22.30;45.50;;;;;;5092830;28;19928;-50
2022/04/21 08:14:48;;;;;;;;;;;22.30;45.50;;;;;;5091561;28;19931;-47
2022/04/21 08:17:15;;;;;;;;;;;22.30;45.50;;;;;;5074794;28;19928;-45
2022/04/21 08:19:42;;;;;;;;;;;22.30;45.50;;;;;;5092576;28;20010;-45
2022/04/21 08:22:09;;;;;;;;;;;22.30;45.50;;;;;;5092902;28;19967;-44
2022/04/21 08:33:15;;;;;;;;;;;22.30;45.50;;;;;;5072539;28;19931;-47
2022/04/21 08:35:44;;;;;;;;;;;22.30;45.50;;;;;;5072649;28;19924;-46
2022/04/21 08:38:11;;;;;;;;;;;22.30;45.50;;;;;;5072160;28;20307;-45
2022/04/21 08:40:41;;;;;;;;;;;22.30;45.50;;;;;;5072234;28;19966;-46
2022/04/21 08:43:15;;;;;;;;;;;22.30;45.50;;;;;;5076174;28;19924;-46
2022/04/21 08:45:43;;;;;;;;;;;22.30;45.50;;;;;;5085643;28;19946;-47
2022/04/21 08:48:15;;;;;;;;;;;22.30;45.50;;;;;;5096324;28;19924;-45
2022/04/21 08:50:42;;;;;;;;;;;22.30;45.50;;;;;;5097256;28;20381;-44
2022/04/21 08:53:10;;;;;;;;;;;22.30;46.10;;;;;;5096767;28;20345;-47
2022/04/21 08:55:37;;;;;;;;;;;22.30;45.50;;;;;;5095977;28;19924;-45
2022/04/21 08:58:05;;;;;;;;;;;22.20;45.50;;;;;;5096331;28;20015;-45
2022/04/21 09:00:32;;;;;;;;;;;22.20;45.40;;;;;;5077746;28;19951;-47
2022/04/21 09:02:59;;;;;;;;;;;22.30;45.50;;;;;;5096615;28;19924;-53
2022/04/21 09:05:27;;;;;;;;;;;22.30;45.50;;;;;;5095891;28;20414;-52
2022/04/21 09:07:54;;;;;;;;;;;22.30;45.50;;;;;;5096017;28;19971;-47
2022/04/21 09:10:42;;;;;;;;;;;22.30;45.50;;;;;;5096037;28;19932;-49
2022/04/21 09:13:09;;;;;;;;;;;22.30;45.50;;;;;;5096343;28;19928;-48
2022/04/21 09:15:36;;;;;;;;;;;22.30;45.50;;;;;;5094605;28;19925;-45
2022/04/21 09:18:11;;;;;;;;;;;22.30;45.50;;;;;;5095537;28;19932;-49
2022/04/21 09:20:39;;;;;;;;;;;22.30;45.50;;;;;;5095940;28;19924;-46
2022/04/21 09:23:07;;;;;;;;;;;22.30;45.50;;;;;;5096004;28;19973;-47
2022/04/21 09:25:43;;;;;;;;;;;22.30;45.50;;;;;;5095043;28;20277;-52
2022/04/21 09:28:31;;;;;;;;;;;22.30;45.50;;;;;;5095607;28;19924;-45
2022/04/21 09:31:00;;;;;;;;;;;22.30;45.50;;;;;;5095343;28;20291;-46
2022/04/21 09:33:27;;;;;;;;;;;22.30;45.50;;;;;;5095283;28;19931;-44
2022/04/21 09:36:01;;;;;;;;;;;22.30;45.50;;;;;;5095427;28;20275;-49
2022/04/21 09:38:29;;;;;;;;;;;22.30;45.40;;;;;;5095466;28;19971;-46
2022/04/21 09:41:03;;;;;;;;;;;22.30;45.50;;;;;;5095967;28;19951;-50
2022/04/21 09:43:32;;;;;;;;;;;22.30;45.50;;;;;;5095788;28;19976;-45
2022/04/21 09:46:16;;;;;;;;;;;22.30;45.50;;;;;;5094448;28;20326;-46
2022/04/21 09:48:44;;;;;;;;;;;22.30;45.50;;;;;;5094900;28;19974;-45
2022/04/21 09:51:12;;;;;;;;;;;22.30;45.50;;;;;;5095458;28;19971;-51
2022/04/21 09:53:53;;;;;;;;;;;22.30;45.40;;;;;;5095645;28;19931;-51
2022/04/21 09:56:36;;;;;;;;;;;22.40;45.50;;;;;;5096088;28;20284;-44
2022/04/21 09:59:05;;;;;;;;;;;22.40;45.40;;;;;;5096701;28;19924;-44
2022/04/21 10:01:35;;;;;;;;;;;22.40;45.30;;;;;;5094879;28;20299;-47
2022/04/21 10:04:05;;;;;;;;;;;22.40;45.30;;;;;;5096171;28;19924;-49
2022/04/21 10:06:32;;;;;;;;;;;22.40;45.20;;;;;;5096409;28;19947;-45
2022/04/21 10:08:59;;;;;;;;;;;22.50;45.20;;;;;;5096320;28;19927;-51
2022/04/21 10:11:27;;;;;;;;;;;22.50;45.10;;;;;;5096475;28;20291;-47
2022/04/21 10:13:55;;;;;;;;;;;22.60;45.10;;;;;;5096086;28;19924;-46
2022/04/21 10:16:24;;;;;;;;;;;22.60;45.10;;;;;;5095077;28;19924;-49
2022/04/21 10:18:55;;;;;;;;;;;22.60;45.00;;;;;;5096434;28;20024;-43
2022/04/21 10:21:38;;;;;;;;;;;22.60;45.10;;;;;;5096136;28;19930;-46
2022/04/21 10:24:05;;;;;;;;;;;22.60;45.00;;;;;;5095713;28;19924;-43
2022/04/21 10:26:35;;;;;;;;;;;22.60;44.90;;;;;;5095683;28;19938;-48
2022/04/21 10:29:15;;;;;;;;;;;22.70;45.00;;;;;;5096356;28;19969;-50
2022/04/21 10:31:46;;;;;;;;;;;22.70;45.00;;;;;;5094824;28;20395;-52
2022/04/21 10:34:32;;;;;;;;;;;22.70;44.90;;;;;;5095622;28;19924;-44
2022/04/21 10:37:15;;;;;;;;;;;22.70;44.90;;;;;;5095887;28;19930;-45
2022/04/21 10:40:03;;;;;;;;;;;22.70;45.00;;;;;;5095811;28;20269;-44
2022/04/21 10:42:50;;;;;;;;;;;22.70;44.90;;;;;;5095487;28;20018;-47
2022/04/21 10:45:21;;;;;;;;;;;22.70;45.00;;;;;;5077490;28;19924;-52
2022/04/21 10:48:04;;;;;;;;;;;22.70;45.00;;;;;;5094504;28;20364;-52
2022/04/21 10:50:32;;;;;;;;;;;22.60;44.90;;;;;;5095244;28;19924;-47
2022/04/21 10:58:33;;;;;;;;;;;22.60;45.00;;;;;;5095412;28;19931;-43
2022/04/21 11:01:07;;;;;;;;;;;22.60;45.00;;;;;;5094498;28;19930;-52
2022/04/21 11:03:36;;;;;;;;;;;22.60;45.00;;;;;;5075186;28;19924;-45
2022/04/21 11:06:07;;;;;;;;;;;22.50;45.00;;;;;;5073773;28;19924;-48
2022/04/21 11:08:35;;;;;;;;;;;22.50;45.10;;;;;;5074766;28;20380;-47
2022/04/21 11:11:03;;;;;;;;;;;22.60;45.10;;;;;;5074612;28;19979;-45
2022/04/21 11:13:56;;;;;;;;;;;22.60;45.10;;;;;;5074436;28;19931;-44
2022/04/21 11:16:41;;;;;;;;;;;22.60;45.10;;;;;;5072773;28;20679;-45
2022/04/21 11:19:28;;;;;;;;;;;22.60;45.00;;;;;;5094659;28;20027;-43
2022/04/21 11:21:56;;;;;;;;;;;22.60;45.00;;;;;;5094377;28;19928;-44
2022/04/21 11:24:23;;;;;;;;;;;22.70;45.00;;;;;;5094701;28;19931;-47
2022/04/21 11:26:56;;;;;;;;;;;22.70;45.00;;;;;;5095021;28;20343;-49
2022/04/21 11:29:24;;;;;;;;;;;22.70;44.90;;;;;;5094596;28;20448;-44
2022/04/21 11:31:54;;;;;;;;;;;22.70;44.80;;;;;;5093672;28;19931;-45
2022/04/21 11:34:22;;;;;;;;;;;22.70;44.80;;;;;;5094830;28;19928;-45
2022/04/21 11:36:52;;;;;;;;;;;22.70;44.80;;;;;;5094479;28;20019;-47
2022/04/21 11:39:19;;;;;;;;;;;22.70;44.80;;;;;;5093279;28;20015;-48
2022/04/21 11:41:48;;;;;;;;;;;22.70;44.80;;;;;;5094272;28;19928;-44
2022/04/21 11:44:22;;;;;;;;;;;22.70;44.80;;;;;;5094377;28;19928;-47
2022/04/21 11:46:49;;;;;;;;;;;22.70;44.80;;;;;;5093145;28;19932;-49
2022/04/21 11:49:16;;;;;;;;;;;22.70;44.80;;;;;;5094458;28;20356;-44
2022/04/21 11:51:44;;;;;;;;;;;22.70;44.80;;;;;;5094298;28;20264;-52
2022/04/21 11:54:11;;;;;;;;;;;22.70;44.80;;;;;;5094067;28;19924;-44
2022/04/21 11:56:39;;;;;;;;;;;22.70;44.80;;;;;;5094087;28;19931;-48
2022/04/21 11:59:07;;;;;;;;;;;22.70;44.80;;;;;;5094286;28;19928;-53
2022/04/21 12:07:11;;;;;;;;;;;22.70;44.90;;;;;;5093998;28;20375;-48
2022/04/21 12:09:39;;;;;;;;;;;22.70;44.80;;;;;;5094281;28;19979;-44
2022/04/21 12:12:09;;;;;;;;;;;22.70;44.80;;;;;;5093872;28;19981;-49
2022/04/21 12:14:39;;;;;;;;;;;22.70;44.80;;;;;;5093636;28;19974;-50
2022/04/21 12:17:09;;;;;;;;;;;22.70;44.80;;;;;;5092551;28;20410;-45
2022/04/21 12:19:42;;;;;;;;;;;22.70;44.80;;;;;;5093608;28;19935;-45
2022/04/21 12:22:12;;;;;;;;;;;22.70;44.80;;;;;;5076540;28;19924;-47
2022/04/21 12:24:43;;;;;;;;;;;22.70;44.80;;;;;;5092712;28;19924;-44
2022/04/21 12:27:12;;;;;;;;;;;22.80;44.80;;;;;;5094053;28;19924;-53
2022/04/21 12:29:59;;;;;;;;;;;22.80;44.80;;;;;;5093706;28;19932;-52
2022/04/21 12:32:34;;;;;;;;;;;22.80;44.80;;;;;;5092750;28;19946;-52
2022/04/21 12:35:03;;;;;;;;;;;22.80;44.80;;;;;;5093985;28;19924;-51
2022/04/21 12:37:31;;;;;;;;;;;22.70;44.80;;;;;;5093593;28;19924;-52
2022/04/21 12:39:59;;;;;;;;;;;22.70;44.80;;;;;;5093587;28;19924;-50
2022/04/21 12:42:47;;;;;;;;;;;22.70;44.80;;;;;;5078715;28;19931;-50
2022/04/21 12:45:16;;;;;;;;;;;22.70;44.80;;;;;;5093635;28;19924;-50
2022/04/21 12:47:44;;;;;;;;;;;22.70;44.80;;;;;;5092606;28;19977;-46
2022/04/21 12:50:21;;;;;;;;;;;22.70;44.80;;;;;;5093679;28;19924;-51
2022/04/21 12:52:49;;;;;;;;;;;22.70;44.90;;;;;;5093496;28;20308;-53
2022/04/21 12:55:19;;;;;;;;;;;22.70;44.90;;;;;;5093500;28;19935;-49
2022/04/21 12:57:58;;;;;;;;;;;22.70;44.90;;;;;;5093436;28;20379;-46
2022/04/21 13:00:26;;;;;;;;;;;22.70;45.00;;;;;;5093508;28;19924;-51
2022/04/21 13:02:53;;;;;;;;;;;22.70;45.00;;;;;;5074769;28;19924;-46
2022/04/21 13:05:20;;;;;;;;;;;22.70;45.00;;;;;;5093714;28;20295;-48
2022/04/21 13:07:47;;;;;;;;;;;22.70;45.00;;;;;;5093334;28;19931;-46
2022/04/21 13:10:14;;;;;;;;;;;22.70;45.10;;;;;;5093634;28;20030;-50
2022/04/21 13:12:41;;;;;;;;;;;22.70;45.10;;;;;;5093142;28;20318;-46
2022/04/21 13:15:08;;;;;;;;;;;22.70;45.10;;;;;;5093584;28;20256;-53
2022/04/21 13:17:36;;;;;;;;;;;22.60;45.00;;;;;;5092362;28;19928;-47
2022/04/21 13:20:03;;;;;;;;;;;22.70;45.10;;;;;;5093176;28;19932;-52
2022/04/21 13:22:30;;;;;;;;;;;22.60;45.00;;;;;;5093154;28;20294;-49
2022/04/21 13:24:57;;;;;;;;;;;22.60;45.00;;;;;;5093249;28;20007;-49
2022/04/21 13:27:26;;;;;;;;;;;22.70;45.10;;;;;;5093214;28;19924;-48
2022/04/21 13:29:54;;;;;;;;;;;22.70;45.10;;;;;;5095551;28;19935;-50
2022/04/21 13:35:07;;;;;;;;;;;22.60;45.00;;;;;;5076556;28;19935;-52
2022/04/21 13:37:34;;;;;;;;;;;22.60;44.90;;;;;;5076820;28;19925;-51
2022/04/21 13:40:01;;;;;;;;;;;22.70;45.10;;;;;;5076629;28;19931;-53
2022/04/21 13:42:28;;;;;;;;;;;22.70;45.10;;;;;;5076782;28;20426;-47
2022/04/21 13:44:55;;;;;;;;;;;22.60;45.00;;;;;;5076357;28;20395;-45
2022/04/21 13:47:42;;;;;;;;;;;22.60;45.00;;;;;;5076682;28;19970;-46
2022/04/21 13:50:09;;;;;;;;;;;22.60;45.10;;;;;;5096455;28;20012;-47
2022/04/21 13:52:38;;;;;;;;;;;22.60;45.00;;;;;;5096704;28;19927;-49
2022/04/21 13:55:05;;;;;;;;;;;22.60;45.10;;;;;;5096322;28;19924;-48
2022/04/21 13:57:32;;;;;;;;;;;22.60;45.10;;;;;;5096687;28;19924;-52
2022/04/21 13:59:59;;;;;;;;;;;22.60;45.10;;;;;;5096591;28;19932;-50
2022/04/21 14:02:26;;;;;;;;;;;22.60;45.10;;;;;;5096368;28;20409;-47
2022/04/21 14:04:53;;;;;;;;;;;22.60;45.10;;;;;;5095381;28;19938;-47
2022/04/21 14:07:20;;;;;;;;;;;22.60;45.10;;;;;;5096273;28;19928;-45
2022/04/21 14:09:47;;;;;;;;;;;22.60;45.10;;;;;;5096109;28;19924;-46
2022/04/21 14:12:18;;;;;;;;;;;22.60;45.10;;;;;;5096522;28;19963;-49
2022/04/21 14:14:45;;;;;;;;;;;22.60;45.10;;;;;;5096356;28;19923;-48
2022/04/21 14:17:12;;;;;;;;;;;22.60;45.10;;;;;;5095750;28;19931;-50
2022/04/21 14:19:40;;;;;;;;;;;22.50;45.10;;;;;;5076971;28;20031;-53
2022/04/21 14:22:07;;;;;;;;;;;22.60;45.10;;;;;;5095715;28;19925;-50
2022/04/21 14:24:34;;;;;;;;;;;22.60;45.10;;;;;;5095907;28;19924;-45
2022/04/21 14:27:02;;;;;;;;;;;22.60;45.20;;;;;;5095637;28;20387;-50
2022/04/21 14:29:29;;;;;;;;;;;22.60;45.10;;;;;;5096162;28;19928;-51
2022/04/21 14:31:56;;;;;;;;;;;22.60;45.20;;;;;;5095689;28;20376;-49
2022/04/21 14:34:25;;;;;;;;;;;22.60;45.10;;;;;;5094842;28;19928;-45
2022/04/21 14:36:52;;;;;;;;;;;22.50;45.10;;;;;;5095647;28;19924;-46
2022/04/21 14:44:50;;;;;;;;;;;22.60;45.20;;;;;;5095773;28;19924;-53
2022/04/21 14:47:17;;;;;;;;;;;22.60;45.20;;;;;;5095538;28;19924;-51
2022/04/21 14:49:53;;;;;;;;;;;22.60;45.20;;;;;;5093776;28;19970;-48
2022/04/21 14:52:21;;;;;;;;;;;22.50;45.10;;;;;;5095198;28;19924;-49
2022/04/21 14:54:50;;;;;;;;;;;22.60;45.20;;;;;;5095612;28;20329;-47
2022/04/21 14:57:19;;;;;;;;;;;22.60;45.20;;;;;;5077760;28;20027;-47
2022/04/21 14:59:46;;;;;;;;;;;22.60;45.20;;;;;;5077520;28;19928;-45
2022/04/21 15:02:13;;;;;;;;;;;22.60;45.20;;;;;;5077647;28;20015;-44
2022/04/21 15:04:41;;;;;;;;;;;22.60;45.20;;;;;;5094561;28;20069;-44
2022/04/21 15:07:08;;;;;;;;;;;22.60;45.20;;;;;;5095074;28;19924;-51
2022/04/21 15:09:36;;;;;;;;;;;22.60;45.20;;;;;;5093105;28;19924;-46
2022/04/21 15:12:03;;;;;;;;;;;22.50;45.10;;;;;;5075139;28;19924;-45
2022/04/21 15:14:31;;;;;;;;;;;22.60;45.20;;;;;;5074760;28;19931;-47
2022/04/21 15:16:59;;;;;;;;;;;22.50;45.10;;;;;;5074962;28;19938;-45
2022/04/21 15:19:26;;;;;;;;;;;22.60;45.20;;;;;;5082162;28;19928;-48
2022/04/21 15:21:53;;;;;;;;;;;22.60;45.20;;;;;;5094982;28;20295;-44
2022/04/21 15:24:20;;;;;;;;;;;22.50;45.10;;;;;;5094612;28;19983;-44